Latest Coastal Weather Observations for Cairns

IDQ60701

Issued at 11:35 pm EST Friday 18 April 2014 (issued every 10 minutes, with the page automatically refreshed every 10 minutes)

About coastal observations | Map of coastal stations | Coastal observations for QLD | Marine services | Other Formats
Station Details ID: 031011 Name: CAIRNS AERO Lat: -16.87 Lon: 145.75 Height: 2.22 m
Data from the previous 72 hours. | See also: Recent months at Cairns
Date/Time
EST
Temp

°C
Wind Pressure Rain
since 9am
mm
Weather Cloud Vis
km
Sea
Height
m
Swell
Dir
 
Speed
knots
Gust
knots
hPa Trend Height
m
Period
s
Dir
18/11:30pm 24.3 S 6 9 1015.7 - 0.6 - Mostly clear 10 - - - -
18/11:00pm 24.7 CALM 0 5 1015.8 - 0.6 - Mostly clear 10 - - - -
18/10:30pm 25.0 S 7 10 1015.9 - 0.6 - Mostly clear 10 - - - -
18/10:00pm 25.1 S 8 13 1016.0 - 0.6 - Mostly clear 10 - - - -
18/09:30pm 25.4 S 8 10 1016.0 - 0.6 - Mostly clear 10 - - - -
18/09:00pm 25.1 S 6 9 1015.9 - 0.6 - Partly cloudy 10 - - - -
18/08:30pm 25.0 SSE 7 10 1015.9 - 0.6 - Mostly clear 10 - - - -
18/08:00pm 24.9 S 6 9 1015.6 - 0.6 - Partly cloudy 10 - - - -
18/07:30pm 25.0 S 6 7 1014.9 - 0.6 - Mostly clear 10 - - - -
18/07:00pm 24.5 SE 4 6 1014.6 - 0.6 - Mostly clear 10 - - - -
18/06:30pm 24.6 SSE 4 6 1014.3 - 0.6 - Mostly clear 10 - - - -
18/06:00pm 25.2 SSE 5 7 1013.9 - 0.6 - Mostly clear 10 - - - -
18/05:30pm 25.2 SSE 7 8 1013.7 - 0.6 - Mostly clear 10 - - - -
18/05:00pm 25.9 SSE 13 16 1013.4 - 0.6 - Mostly clear 10 - - - -
18/04:30pm 26.6 E 14 19 1013.3 - 0.6 - Mostly clear 10 - - - -
18/04:00pm 27.7 SE 11 15 1012.9 - 0.6 - Partly cloudy 10 - - - -
18/03:30pm 28.3 SE 12 16 1012.7 - 0.4 - Mostly clear 10 - - - -
18/03:00pm 28.6 ESE 11 15 1012.7 R 0.4 Fine Mostly cloudy 25 - - - -
18/02:30pm 28.5 SE 11 15 1012.9 - 0.4 - Mostly clear 10 - - - -
18/02:00pm 27.0 ESE 11 15 1012.9 - 0.4 - Partly cloudy 10 - - - -
18/01:30pm 27.3 SSW 8 13 1013.2 - 0.4 - Mostly clear 10 - - - -
18/01:00pm 25.6 SE 13 15 1013.6 - 0.4 Showers Mostly clear 10 - - - -
18/12:30pm 27.3 SSE 11 16 1013.8 - 0.0 - Partly cloudy 10 - - - -
18/12:00pm 27.7 SSE 13 16 1014.0 - 0.0 - Cloudy 10 - - - -
18/11:30am 28.3 SE 11 17 1014.3 - 0.0 - Mostly clear 10 - - - -
18/11:00am 28.0 SE 14 19 1014.8 - 0.0 - Mostly clear 10 - - - -
18/10:30am 28.2 SE 13 17 1015.1 - 0.0 - Mostly clear 10 - - - -
18/10:00am 27.6 SSE 9 12 1015.3 - 0.0 - Partly cloudy 10 - - - -
18/09:30am 27.1 S 10 14 1015.2 - 0.0 - Mostly clear 10 - - - -
18/09:00am 26.7 S 8 11 1015.0 F 0.0 Distant precip. Mostly cloudy 25 - - - -
18/08:30am 26.0 SSE 9 14 1014.8 - 0.0 - Mostly clear 10 - - - -
18/08:00am 25.5 SSE 8 12 1014.7 - 0.0 - Mostly clear 10 - - - -
18/07:30am 25.1 S 9 14 1014.5 - 0.0 - Mostly clear 10 - - - -
18/07:00am 25.0 S 9 14 1014.3 - 0.0 - Mostly clear 10 - - - -
18/06:30am 24.8 S 10 14 1014.0 - 0.0 - Mostly clear 10 - - - -
18/06:00am 24.8 S 8 11 1013.7 - 0.0 - Mostly clear 10 - - - -
18/05:30am 24.6 S 8 13 1013.3 - 0.0 - Mostly clear 10 - - - -
18/05:00am 24.8 S 8 11 1013.2 - 0.0 - Mostly clear 10 - - - -
18/04:30am 24.9 S 9 14 1013.1 - 0.0 - Mostly clear 10 - - - -
18/04:00am 24.8 S 8 12 1012.9 - 0.0 - Mostly clear 10 - - - -
18/03:30am 25.1 S 8 14 1012.9 - 0.0 - Mostly clear 10 - - - -
18/03:00am 25.0 S 9 12 1012.8 - 0.0 - Mostly clear 10 - - - -
18/02:30am 25.2 S 10 15 1013.3 - 0.0 - Mostly clear 10 - - - -
18/02:00am 25.5 S 10 14 1013.5 - 0.0 - Mostly clear 10 - - - -
18/01:30am 25.4 S 10 15 1013.8 - 0.0 - Mostly clear 10 - - - -
18/01:00am 25.2 S 8 14 1014.2 - 0.0 - Mostly clear 10 - - - -
18/12:30am 25.5 S 8 14 1014.7 - 0.0 - Mostly clear 10 - - - -
18/12:00am 25.4 S 9 14 1015.0 - 0.0 - Mostly clear 10 - - - -
 
Date/Time
EST
Temp

°C
Wind Pressure Rain
since 9am
mm
Weather Cloud Vis
km
Sea
Height
m
Swell
Dir
 
Speed
knots
Gust
knots
hPa Trend Height
m
Period
s
Dir
17/11:30pm 25.4 S 8 12 1015.3 - 0.0 - Mostly clear 10 - - - -
17/11:00pm 25.5 S 8 12 1015.6 - 0.0 - Mostly clear 10 - - - -
17/10:30pm 25.8 S 8 13 1015.8 - 0.0 - Mostly clear 10 - - - -
17/10:00pm 25.5 S 7 11 1015.8 - 0.0 - Mostly clear 10 - - - -
17/09:30pm 25.5 S 7 13 1015.9 - 0.0 - Mostly clear 10 - - - -
17/09:00pm 25.5 S 9 12 1015.5 - 0.0 - Mostly clear 10 - - - -
17/08:30pm 25.6 S 7 10 1015.4 - 0.0 - Mostly clear 10 - - - -
17/08:00pm 25.9 S 7 10 1015.2 - 0.0 - Mostly clear 10 - - - -
17/07:30pm 26.0 SSE 10 13 1014.9 - 0.0 - Mostly clear 10 - - - -
17/07:00pm 26.0 SSE 14 17 1014.4 - 0.0 - Mostly clear 10 - - - -
17/06:30pm 26.2 SSE 14 18 1014.0 - 0.0 - Mostly clear 10 - - - -
17/06:00pm 26.5 SE 16 20 1013.5 - 0.0 - Mostly clear 10 - - - -
17/05:30pm 27.2 SE 17 22 1013.1 - 0.0 - Mostly clear 10 - - - -
17/05:00pm 27.3 SE 16 21 1012.7 - 0.0 - Mostly clear 10 - - - -
17/04:30pm 27.7 SE 14 19 1012.7 - 0.0 - Mostly clear 10 - - - -
17/04:00pm 28.1 SE 14 18 1012.4 - 0.0 - Mostly clear 10 - - - -
17/03:30pm 28.3 SE 14 17 1012.3 - 0.0 - Mostly clear 10 - - - -
17/03:00pm 29.1 ESE 15 19 1012.2 F 0.0 Fine Mostly cloudy 25 - - - -
17/02:30pm 29.3 SE 14 18 1012.4 - 0.0 - Mostly clear 10 - - - -
17/02:00pm 29.0 SE 13 16 1012.8 - 0.0 - Mostly clear 10 - - - -
17/01:30pm 28.7 SE 14 19 1013.1 - 0.0 - Mostly clear 10 - - - -
17/01:00pm 28.9 SE 12 16 1013.6 - 0.0 - Mostly clear 10 - - - -
17/12:30pm 28.1 SE 15 19 1013.8 - 0.0 - Mostly clear 10 - - - -
17/12:00pm 28.5 SSE 12 16 1014.1 - 0.0 - Mostly clear 10 - - - -
17/11:30am 28.7 SE 10 14 1014.7 - 0.0 - Mostly clear 10 - - - -
17/11:00am 27.8 SE 12 15 1015.2 - 0.0 - Mostly clear 10 - - - -
17/10:30am 27.9 SSE 8 11 1015.4 - 0.0 - Mostly clear 10 - - - -
17/10:00am 27.1 SSE 9 13 1015.5 - 0.0 - Mostly clear 10 - - - -
17/09:30am 26.9 S 9 13 1015.5 - 0.0 - Mostly clear 10 - - - -
17/09:00am 26.4 S 8 13 1015.2 S 0.0 Showers Mostly cloudy 20 - - - -
17/08:30am 26.0 S 8 11 1015.0 - 0.0 - Mostly clear 10 - - - -
17/08:00am 25.6 S 8 12 1014.9 - 0.0 - Mostly clear 10 - - - -
17/07:30am 25.6 SSE 7 10 1014.7 - 0.0 - Mostly clear 10 - - - -
17/07:00am 25.4 S 9 13 1014.3 - 0.0 - Mostly clear 10 - - - -
17/06:30am 25.3 SSE 8 12 1013.8 - 0.0 - Mostly clear 10 - - - -
17/06:00am 25.0 SSE 7 10 1013.3 - 0.0 - Partly cloudy 10 - - - -
17/05:30am 25.1 SSE 7 11 1013.1 - 0.0 - Mostly clear 10 - - - -
17/05:00am 25.0 SSE 7 9 1012.8 - 0.0 - Mostly clear 10 - - - -
17/04:30am 25.0 S 8 12 1012.5 - 0.0 - Mostly clear 10 - - - -
17/04:00am 25.0 S 8 14 1012.6 - 0.0 Showers Partly cloudy 10 - - - -
17/03:30am 25.2 SSE 7 11 1012.4 - 0.0 - Partly cloudy 10 - - - -
17/03:00am 25.3 S 8 12 1012.4 - 0.0 - Partly cloudy 10 - - - -
17/02:30am 25.0 SSE 10 14 1012.6 - 0.0 - Partly cloudy 10 - - - -
17/02:00am 25.1 S 9 13 1012.7 - 0.0 - Mostly clear 10 - - - -
17/01:30am 25.1 S 10 15 1012.9 - 0.0 - Mostly clear 10 - - - -
17/01:00am 25.1 SSE 8 10 1013.3 - 0.0 Showers Mostly clear 10 - - - -
17/12:30am 25.1 S 8 14 1013.7 - 0.0 Showers Mostly clear 10 - - - -
17/12:00am 25.7 S 9 14 1013.7 - 0.0 - Cloudy 10 - - - -
 
Date/Time
EST
Temp

°C
Wind Pressure Rain
since 9am
mm
Weather Cloud Vis
km
Sea
Height
m
Swell
Dir
 
Speed
knots
Gust
knots
hPa Trend Height
m
Period
s
Dir
16/11:30pm 25.7 S 9 14 1013.7 - 0.0 - Mostly clear 10 - - - -
16/11:00pm 25.4 S 8 12 1014.0 - 0.0 - Mostly clear 10 - - - -
16/10:30pm 25.6 S 8 13 1014.0 - 0.0 - Mostly clear 10 - - - -
16/10:00pm 25.6 S 9 14 1013.8 - 0.0 - Mostly clear 10 - - - -
16/09:30pm 25.4 S 8 11 1013.8 - 0.0 - Mostly clear 10 - - - -
16/09:00pm 25.6 S 7 10 1013.7 - 0.0 - Mostly clear 10 - - - -
16/08:30pm 25.4 S 7 10 1013.6 - 0.0 - Mostly clear 10 - - - -
16/08:00pm 25.4 S 7 10 1013.4 - 0.0 - Mostly clear 10 - - - -
16/07:30pm 25.5 S 7 10 1012.9 - 0.0 - Mostly clear 10 - - - -
16/07:00pm 25.7 S 8 14 1012.6 - 0.0 - Mostly clear 10 - - - -
16/06:30pm 26.2 SSE 10 15 1012.3 - 0.0 - Mostly clear 10 - - - -
16/06:00pm 26.9 SE 14 18 1012.0 - 0.0 - Partly cloudy 10 - - - -
16/05:30pm 27.7 SE 15 20 1011.7 - 0.0 - Mostly clear 10 - - - -
16/05:00pm 28.2 SE 13 16 1011.5 - 0.0 - Mostly clear 10 - - - -
16/04:30pm 28.6 SE 11 15 1011.4 - 0.0 - Mostly clear 10 - - - -
16/04:00pm 29.0 SE 10 13 1011.3 - 0.0 - Mostly clear 10 - - - -
16/03:30pm 29.2 SE 13 18 1011.2 - 0.0 - Mostly clear 10 - - - -
16/03:00pm 29.5 SSE 9 12 1011.1 F 0.0 Fine Mostly cloudy 30 - - - -
16/02:30pm 28.9 SE 11 14 1011.4 - 0.0 - Mostly clear 10 - - - -
16/02:00pm 29.3 SE 12 16 1011.7 - 0.0 - Mostly clear 10 - - - -
16/01:30pm 28.7 ESE 11 14 1012.1 - 0.0 - Mostly clear 10 - - - -
16/01:00pm 28.6 SE 12 15 1012.3 - 0.0 - Mostly clear 10 - - - -
16/12:30pm 28.6 SSE 13 16 1012.7 - 0.0 - Mostly clear 10 - - - -
16/12:00pm 29.2 SSE 13 17 1013.1 - 0.0 - Mostly cloudy 10 - - - -
16/11:30am 28.7 SSE 12 16 1013.6 - 0.0 - Mostly clear 10 - - - -
16/11:00am 28.7 SSE 9 14 1014.1 - 0.0 - Mostly clear 10 - - - -
16/10:30am 27.6 SE 10 15 1014.4 - 0.0 - Partly cloudy 10 - - - -
16/10:00am 27.3 S 8 13 1014.5 - 0.0 - Mostly clear 10 - - - -
16/09:30am 26.7 S 7 10 1014.4 - 0.0 - Mostly clear 10 - - - -
16/09:00am 26.4 S 7 9 1014.2 S 0.0 Fine Mostly cloudy 25 - - - -
16/08:30am 26.0 S 7 10 1013.8 - 0.0 - Partly cloudy 10 - - - -
16/08:00am 26.1 S 7 9 1013.5 - 0.0 - Mostly clear 10 - - - -
16/07:30am 25.7 S 6 9 1013.4 - 0.0 - Mostly clear 10 - - - -
16/07:00am 25.3 S 7 9 1013.0 - 0.0 - Mostly clear 10 - - - -
16/06:30am 24.8 SSE 7 10 1012.8 - 0.0 - Mostly clear 10 - - - -
16/06:00am 25.1 S 8 12 1012.4 - 0.0 - Mostly clear 10 - - - -
16/05:30am 24.9 SSE 8 10 1012.2 - 0.0 - Mostly clear 10 - - - -
16/05:00am 25.1 S 8 12 1012.1 - 0.0 - Mostly clear 10 - - - -
16/04:30am 25.0 S 8 12 1012.0 - 0.0 - Mostly clear 10 - - - -
16/04:00am 25.2 S 8 14 1011.8 - 0.0 - Mostly clear 10 - - - -
16/03:30am 25.1 S 7 10 1012.0 - 0.0 - Mostly clear 10 - - - -
16/03:00am 25.1 S 6 8 1012.1 - 0.0 - Mostly clear 10 - - - -
16/02:30am 25.2 S 7 10 1012.3 - 0.0 - Mostly clear 10 - - - -
16/02:00am 25.2 S 5 8 1012.1 - 0.0 - Mostly clear 10 - - - -
16/01:30am 25.1 SSE 5 7 1012.5 - 0.0 - Mostly clear 10 - - - -
16/01:00am 25.2 S 7 9 1012.8 - 0.0 - Mostly clear 10 - - - -
16/12:30am 25.6 S 6 8 1013.0 - 0.0 - Mostly clear 10 - - - -
16/12:00am 25.5 S 5 6 1013.3 - 0.0 - Partly cloudy 10 - - - -

Other Formats:

Comma delimited format used in spreadsheet applications
http://www.bom.gov.au/fwo/IDQ60701/IDQ60701.94287.axf

JavaScript Object Notation format (JSON) in row-major order
http://www.bom.gov.au/fwo/IDQ60701/IDQ60701.94287.json